sensor_id;sensor_type;location;lat;lon;timestamp;P1;durP1;ratioP1;P2;durP2;ratioP2
14933;SDS011;7560;51.364;12.384;2023-11-21T00:01:48;4.63;;;3.00;;
14933;SDS011;7560;51.364;12.384;2023-11-21T00:06:50;4.47;;;2.83;;
14933;SDS011;7560;51.364;12.384;2023-11-21T00:11:52;6.03;;;3.33;;
14933;SDS011;7560;51.364;12.384;2023-11-21T00:16:54;5.50;;;3.28;;
14933;SDS011;7560;51.364;12.384;2023-11-21T00:21:56;6.65;;;3.45;;
14933;SDS011;7560;51.364;12.384;2023-11-21T00:26:59;6.22;;;3.88;;
14933;SDS011;7560;51.364;12.384;2023-11-21T00:32:01;6.93;;;4.20;;
14933;SDS011;7560;51.364;12.384;2023-11-21T00:37:03;5.80;;;4.00;;
14933;SDS011;7560;51.364;12.384;2023-11-21T00:42:05;5.68;;;3.85;;
14933;SDS011;7560;51.364;12.384;2023-11-21T00:47:07;5.15;;;3.78;;
14933;SDS011;7560;51.364;12.384;2023-11-21T00:52:09;6.32;;;3.95;;
14933;SDS011;7560;51.364;12.384;2023-11-21T00:57:11;6.72;;;4.38;;
14933;SDS011;7560;51.364;12.384;2023-11-21T01:02:13;7.00;;;4.05;;
14933;SDS011;7560;51.364;12.384;2023-11-21T01:07:15;8.57;;;4.63;;
14933;SDS011;7560;51.364;12.384;2023-11-21T01:12:17;8.48;;;4.32;;
14933;SDS011;7560;51.364;12.384;2023-11-21T01:17:19;6.32;;;4.38;;
14933;SDS011;7560;51.364;12.384;2023-11-21T01:22:21;6.30;;;4.60;;
14933;SDS011;7560;51.364;12.384;2023-11-21T01:27:27;8.38;;;4.93;;
14933;SDS011;7560;51.364;12.384;2023-11-21T01:32:28;9.90;;;5.07;;
14933;SDS011;7560;51.364;12.384;2023-11-21T01:37:30;7.75;;;4.18;;
14933;SDS011;7560;51.364;12.384;2023-11-21T01:42:32;6.32;;;4.30;;
14933;SDS011;7560;51.364;12.384;2023-11-21T01:47:35;7.53;;;3.95;;
14933;SDS011;7560;51.364;12.384;2023-11-21T01:52:37;6.65;;;3.70;;
14933;SDS011;7560;51.364;12.384;2023-11-21T01:57:41;7.07;;;3.80;;
14933;SDS011;7560;51.364;12.384;2023-11-21T02:02:43;5.40;;;3.42;;
14933;SDS011;7560;51.364;12.384;2023-11-21T02:07:46;6.03;;;3.47;;
14933;SDS011;7560;51.364;12.384;2023-11-21T02:12:53;6.30;;;4.03;;
14933;SDS011;7560;51.364;12.384;2023-11-21T02:17:55;5.78;;;4.70;;
14933;SDS011;7560;51.364;12.384;2023-11-21T02:23:00;8.25;;;4.22;;
14933;SDS011;7560;51.364;12.384;2023-11-21T02:28:03;6.45;;;3.83;;
14933;SDS011;7560;51.364;12.384;2023-11-21T02:33:05;5.93;;;3.80;;
14933;SDS011;7560;51.364;12.384;2023-11-21T02:38:08;7.55;;;4.05;;
14933;SDS011;7560;51.364;12.384;2023-11-21T02:43:10;6.80;;;3.92;;
14933;SDS011;7560;51.364;12.384;2023-11-21T02:48:11;5.30;;;3.60;;
14933;SDS011;7560;51.364;12.384;2023-11-21T02:53:13;6.13;;;4.03;;
14933;SDS011;7560;51.364;12.384;2023-11-21T02:58:16;5.82;;;3.67;;
14933;SDS011;7560;51.364;12.384;2023-11-21T03:03:17;5.65;;;3.55;;
14933;SDS011;7560;51.364;12.384;2023-11-21T03:08:19;6.03;;;3.50;;
14933;SDS011;7560;51.364;12.384;2023-11-21T03:13:22;5.15;;;3.35;;
14933;SDS011;7560;51.364;12.384;2023-11-21T03:18:24;6.35;;;4.22;;
14933;SDS011;7560;51.364;12.384;2023-11-21T03:23:25;6.55;;;4.50;;
14933;SDS011;7560;51.364;12.384;2023-11-21T03:28:27;8.25;;;3.95;;
14933;SDS011;7560;51.364;12.384;2023-11-21T03:33:29;6.45;;;3.33;;
14933;SDS011;7560;51.364;12.384;2023-11-21T03:38:31;5.35;;;3.80;;
14933;SDS011;7560;51.364;12.384;2023-11-21T03:43:33;7.40;;;3.63;;
14933;SDS011;7560;51.364;12.384;2023-11-21T03:48:34;4.65;;;3.17;;
14933;SDS011;7560;51.364;12.384;2023-11-21T03:53:36;7.72;;;3.30;;
14933;SDS011;7560;51.364;12.384;2023-11-21T03:58:38;7.22;;;3.58;;
14933;SDS011;7560;51.364;12.384;2023-11-21T04:03:40;7.43;;;3.30;;
14933;SDS011;7560;51.364;12.384;2023-11-21T04:08:42;6.97;;;3.50;;
14933;SDS011;7560;51.364;12.384;2023-11-21T04:13:46;7.13;;;3.63;;
14933;SDS011;7560;51.364;12.384;2023-11-21T04:18:48;6.65;;;3.13;;
14933;SDS011;7560;51.364;12.384;2023-11-21T04:23:50;4.95;;;3.08;;
14933;SDS011;7560;51.364;12.384;2023-11-21T04:28:52;4.88;;;3.08;;
14933;SDS011;7560;51.364;12.384;2023-11-21T04:33:54;6.43;;;3.35;;
14933;SDS011;7560;51.364;12.384;2023-11-21T04:38:56;4.70;;;3.10;;
14933;SDS011;7560;51.364;12.384;2023-11-21T04:43:57;7.85;;;3.28;;
14933;SDS011;7560;51.364;12.384;2023-11-21T04:49:02;7.20;;;3.53;;
14933;SDS011;7560;51.364;12.384;2023-11-21T04:54:04;8.82;;;3.05;;
14933;SDS011;7560;51.364;12.384;2023-11-21T04:59:07;4.95;;;2.92;;
14933;SDS011;7560;51.364;12.384;2023-11-21T05:04:09;7.00;;;3.67;;
14933;SDS011;7560;51.364;12.384;2023-11-21T05:09:11;5.40;;;3.15;;
14933;SDS011;7560;51.364;12.384;2023-11-21T05:14:13;4.82;;;3.05;;
14933;SDS011;7560;51.364;12.384;2023-11-21T05:19:15;5.15;;;3.20;;
14933;SDS011;7560;51.364;12.384;2023-11-21T05:24:17;7.22;;;3.33;;
14933;SDS011;7560;51.364;12.384;2023-11-21T05:29:19;4.82;;;2.70;;
14933;SDS011;7560;51.364;12.384;2023-11-21T05:34:20;7.50;;;3.67;;
14933;SDS011;7560;51.364;12.384;2023-11-21T05:39:25;9.45;;;3.42;;
14933;SDS011;7560;51.364;12.384;2023-11-21T05:44:26;6.95;;;3.25;;
14933;SDS011;7560;51.364;12.384;2023-11-21T05:49:28;7.38;;;3.78;;
14933;SDS011;7560;51.364;12.384;2023-11-21T05:54:31;6.05;;;3.35;;
14933;SDS011;7560;51.364;12.384;2023-11-21T05:59:33;8.50;;;3.50;;
14933;SDS011;7560;51.364;12.384;2023-11-21T06:04:35;9.35;;;3.50;;
14933;SDS011;7560;51.364;12.384;2023-11-21T06:09:37;8.43;;;4.57;;
14933;SDS011;7560;51.364;12.384;2023-11-21T06:14:39;7.55;;;4.32;;
14933;SDS011;7560;51.364;12.384;2023-11-21T06:19:40;7.75;;;4.70;;
14933;SDS011;7560;51.364;12.384;2023-11-21T06:24:43;8.05;;;4.53;;
14933;SDS011;7560;51.364;12.384;2023-11-21T06:29:44;8.02;;;4.63;;
14933;SDS011;7560;51.364;12.384;2023-11-21T06:34:46;10.73;;;5.13;;
14933;SDS011;7560;51.364;12.384;2023-11-21T06:39:48;11.95;;;5.68;;
14933;SDS011;7560;51.364;12.384;2023-11-21T06:44:53;10.45;;;5.25;;
14933;SDS011;7560;51.364;12.384;2023-11-21T06:49:58;11.40;;;5.78;;
14933;SDS011;7560;51.364;12.384;2023-11-21T06:55:00;12.73;;;6.15;;
14933;SDS011;7560;51.364;12.384;2023-11-21T07:00:02;14.25;;;6.53;;
14933;SDS011;7560;51.364;12.384;2023-11-21T07:05:05;15.43;;;7.07;;
14933;SDS011;7560;51.364;12.384;2023-11-21T07:10:07;14.98;;;6.97;;
14933;SDS011;7560;51.364;12.384;2023-11-21T07:15:09;13.27;;;6.85;;
14933;SDS011;7560;51.364;12.384;2023-11-21T07:20:11;15.30;;;8.20;;
14933;SDS011;7560;51.364;12.384;2023-11-21T07:25:13;20.25;;;9.48;;
14933;SDS011;7560;51.364;12.384;2023-11-21T07:30:16;26.20;;;10.93;;
14933;SDS011;7560;51.364;12.384;2023-11-21T07:35:18;27.33;;;12.20;;
14933;SDS011;7560;51.364;12.384;2023-11-21T07:40:20;29.10;;;13.70;;
14933;SDS011;7560;51.364;12.384;2023-11-21T07:45:24;27.17;;;12.38;;
14933;SDS011;7560;51.364;12.384;2023-11-21T07:50:28;24.00;;;10.73;;
14933;SDS011;7560;51.364;12.384;2023-11-21T07:55:30;19.63;;;10.25;;
14933;SDS011;7560;51.364;12.384;2023-11-21T08:00:33;21.45;;;11.05;;
14933;SDS011;7560;51.364;12.384;2023-11-21T08:05:36;20.20;;;10.30;;
14933;SDS011;7560;51.364;12.384;2023-11-21T08:10:38;14.48;;;7.53;;
14933;SDS011;7560;51.364;12.384;2023-11-21T08:15:40;13.82;;;7.03;;
14933;SDS011;7560;51.364;12.384;2023-11-21T08:20:42;14.85;;;6.95;;
14933;SDS011;7560;51.364;12.384;2023-11-21T08:25:44;12.98;;;6.55;;
14933;SDS011;7560;51.364;12.384;2023-11-21T08:30:46;12.88;;;7.10;;
14933;SDS011;7560;51.364;12.384;2023-11-21T08:35:48;15.02;;;7.60;;
14933;SDS011;7560;51.364;12.384;2023-11-21T08:40:50;12.10;;;7.20;;
14933;SDS011;7560;51.364;12.384;2023-11-21T08:45:52;12.38;;;6.78;;
14933;SDS011;7560;51.364;12.384;2023-11-21T08:50:54;10.57;;;6.43;;
14933;SDS011;7560;51.364;12.384;2023-11-21T08:55:55;10.30;;;5.88;;
14933;SDS011;7560;51.364;12.384;2023-11-21T09:00:58;9.40;;;5.85;;
14933;SDS011;7560;51.364;12.384;2023-11-21T09:06:00;12.13;;;6.40;;
14933;SDS011;7560;51.364;12.384;2023-11-21T09:11:01;10.30;;;6.28;;
14933;SDS011;7560;51.364;12.384;2023-11-21T09:16:04;9.65;;;5.85;;
14933;SDS011;7560;51.364;12.384;2023-11-21T09:21:06;9.70;;;5.55;;
14933;SDS011;7560;51.364;12.384;2023-11-21T09:26:10;8.75;;;5.28;;
14933;SDS011;7560;51.364;12.384;2023-11-21T09:31:11;9.77;;;5.72;;
14933;SDS011;7560;51.364;12.384;2023-11-21T09:36:16;10.98;;;6.65;;
14933;SDS011;7560;51.364;12.384;2023-11-21T09:41:23;11.25;;;6.50;;
14933;SDS011;7560;51.364;12.384;2023-11-21T09:46:37;12.77;;;7.18;;
14933;SDS011;7560;51.364;12.384;2023-11-21T09:51:43;11.90;;;6.22;;
14933;SDS011;7560;51.364;12.384;2023-11-21T09:56:45;11.88;;;6.68;;
14933;SDS011;7560;51.364;12.384;2023-11-21T10:01:47;9.40;;;5.90;;
14933;SDS011;7560;51.364;12.384;2023-11-21T10:06:49;8.10;;;5.20;;
14933;SDS011;7560;51.364;12.384;2023-11-21T10:11:53;7.90;;;4.95;;
14933;SDS011;7560;51.364;12.384;2023-11-21T10:16:58;7.75;;;4.45;;
14933;SDS011;7560;51.364;12.384;2023-11-21T10:22:00;7.00;;;4.40;;
14933;SDS011;7560;51.364;12.384;2023-11-21T10:27:04;8.52;;;4.90;;
14933;SDS011;7560;51.364;12.384;2023-11-21T10:32:06;6.70;;;4.07;;
14933;SDS011;7560;51.364;12.384;2023-11-21T10:37:12;6.97;;;4.13;;
14933;SDS011;7560;51.364;12.384;2023-11-21T10:42:13;7.65;;;4.68;;
14933;SDS011;7560;51.364;12.384;2023-11-21T10:47:15;9.10;;;4.63;;
14933;SDS011;7560;51.364;12.384;2023-11-21T10:52:20;7.20;;;4.57;;
14933;SDS011;7560;51.364;12.384;2023-11-21T10:57:22;8.55;;;4.90;;
14933;SDS011;7560;51.364;12.384;2023-11-21T11:02:25;12.25;;;6.43;;
14933;SDS011;7560;51.364;12.384;2023-11-21T11:07:34;18.83;;;9.60;;
14933;SDS011;7560;51.364;12.384;2023-11-21T11:12:38;10.60;;;5.75;;
14933;SDS011;7560;51.364;12.384;2023-11-21T11:17:47;11.48;;;5.50;;
14933;SDS011;7560;51.364;12.384;2023-11-21T11:22:54;10.43;;;6.15;;
14933;SDS011;7560;51.364;12.384;2023-11-21T11:38:45;18.38;;;8.80;;
14933;SDS011;7560;51.364;12.384;2023-11-21T11:43:47;15.88;;;9.35;;
14933;SDS011;7560;51.364;12.384;2023-11-21T11:48:55;15.80;;;8.63;;
14933;SDS011;7560;51.364;12.384;2023-11-21T11:54:05;12.88;;;8.07;;
14933;SDS011;7560;51.364;12.384;2023-11-21T11:59:08;12.77;;;6.32;;
14933;SDS011;7560;51.364;12.384;2023-11-21T12:09:19;8.88;;;5.53;;
14933;SDS011;7560;51.364;12.384;2023-11-21T12:14:25;11.82;;;5.40;;
14933;SDS011;7560;51.364;12.384;2023-11-21T12:19:27;9.00;;;5.00;;
14933;SDS011;7560;51.364;12.384;2023-11-21T12:24:29;11.95;;;5.50;;
14933;SDS011;7560;51.364;12.384;2023-11-21T12:29:31;8.40;;;4.65;;
14933;SDS011;7560;51.364;12.384;2023-11-21T12:34:34;9.30;;;5.05;;
14933;SDS011;7560;51.364;12.384;2023-11-21T12:39:36;8.68;;;5.07;;
14933;SDS011;7560;51.364;12.384;2023-11-21T12:44:38;14.32;;;6.88;;
14933;SDS011;7560;51.364;12.384;2023-11-21T12:49:42;15.30;;;7.93;;
14933;SDS011;7560;51.364;12.384;2023-11-21T12:54:45;16.45;;;8.40;;
14933;SDS011;7560;51.364;12.384;2023-11-21T12:59:50;17.42;;;9.18;;
14933;SDS011;7560;51.364;12.384;2023-11-21T13:04:56;16.92;;;8.20;;
14933;SDS011;7560;51.364;12.384;2023-11-21T13:09:59;16.85;;;8.60;;
14933;SDS011;7560;51.364;12.384;2023-11-21T13:15:03;17.30;;;9.18;;
14933;SDS011;7560;51.364;12.384;2023-11-21T13:20:08;13.85;;;7.93;;
14933;SDS011;7560;51.364;12.384;2023-11-21T13:25:11;13.30;;;7.53;;
14933;SDS011;7560;51.364;12.384;2023-11-21T13:30:13;14.90;;;7.75;;
14933;SDS011;7560;51.364;12.384;2023-11-21T13:35:18;14.30;;;6.95;;
14933;SDS011;7560;51.364;12.384;2023-11-21T13:40:31;11.80;;;7.03;;
14933;SDS011;7560;51.364;12.384;2023-11-21T13:45:39;15.00;;;6.60;;
14933;SDS011;7560;51.364;12.384;2023-11-21T13:50:44;9.43;;;5.53;;
14933;SDS011;7560;51.364;12.384;2023-11-21T13:56:08;10.40;;;6.05;;
14933;SDS011;7560;51.364;12.384;2023-11-21T14:01:13;12.68;;;6.15;;
14933;SDS011;7560;51.364;12.384;2023-11-21T14:06:38;10.63;;;5.65;;
14933;SDS011;7560;51.364;12.384;2023-11-21T14:11:51;8.60;;;5.35;;
14933;SDS011;7560;51.364;12.384;2023-11-21T14:16:54;10.65;;;5.10;;
14933;SDS011;7560;51.364;12.384;2023-11-21T14:22:00;8.20;;;4.72;;
14933;SDS011;7560;51.364;12.384;2023-11-21T14:27:02;6.07;;;3.88;;
14933;SDS011;7560;51.364;12.384;2023-11-21T14:32:04;6.43;;;3.90;;
14933;SDS011;7560;51.364;12.384;2023-11-21T14:37:07;5.82;;;3.58;;
14933;SDS011;7560;51.364;12.384;2023-11-21T14:42:08;5.93;;;3.75;;
14933;SDS011;7560;51.364;12.384;2023-11-21T14:47:10;7.55;;;4.18;;
14933;SDS011;7560;51.364;12.384;2023-11-21T14:52:19;7.07;;;4.18;;
14933;SDS011;7560;51.364;12.384;2023-11-21T14:57:47;6.05;;;4.10;;
14933;SDS011;7560;51.364;12.384;2023-11-21T15:02:52;6.50;;;3.83;;
14933;SDS011;7560;51.364;12.384;2023-11-21T15:07:55;8.52;;;4.45;;
14933;SDS011;7560;51.364;12.384;2023-11-21T15:13:02;5.53;;;3.60;;
14933;SDS011;7560;51.364;12.384;2023-11-21T15:18:04;5.20;;;3.55;;
14933;SDS011;7560;51.364;12.384;2023-11-21T15:23:06;6.70;;;3.55;;
14933;SDS011;7560;51.364;12.384;2023-11-21T15:28:08;6.47;;;3.90;;
14933;SDS011;7560;51.364;12.384;2023-11-21T15:33:10;6.55;;;4.00;;
14933;SDS011;7560;51.364;12.384;2023-11-21T15:38:13;6.50;;;3.83;;
14933;SDS011;7560;51.364;12.384;2023-11-21T15:43:15;6.93;;;4.47;;
14933;SDS011;7560;51.364;12.384;2023-11-21T15:48:17;6.32;;;3.90;;
14933;SDS011;7560;51.364;12.384;2023-11-21T15:53:19;6.30;;;3.65;;
14933;SDS011;7560;51.364;12.384;2023-11-21T15:58:20;5.95;;;3.72;;
14933;SDS011;7560;51.364;12.384;2023-11-21T16:03:22;5.60;;;3.58;;
14933;SDS011;7560;51.364;12.384;2023-11-21T16:08:24;5.38;;;3.50;;
14933;SDS011;7560;51.364;12.384;2023-11-21T16:13:27;6.32;;;3.70;;
14933;SDS011;7560;51.364;12.384;2023-11-21T16:18:29;6.97;;;4.25;;
14933;SDS011;7560;51.364;12.384;2023-11-21T16:23:30;5.82;;;3.97;;
14933;SDS011;7560;51.364;12.384;2023-11-21T16:28:32;4.75;;;3.53;;
14933;SDS011;7560;51.364;12.384;2023-11-21T16:33:34;8.10;;;4.40;;
14933;SDS011;7560;51.364;12.384;2023-11-21T16:38:36;5.70;;;3.80;;
14933;SDS011;7560;51.364;12.384;2023-11-21T16:43:37;8.77;;;4.53;;
14933;SDS011;7560;51.364;12.384;2023-11-21T16:48:39;7.15;;;4.50;;
14933;SDS011;7560;51.364;12.384;2023-11-21T16:53:41;6.57;;;3.95;;
14933;SDS011;7560;51.364;12.384;2023-11-21T16:58:44;5.68;;;3.85;;
14933;SDS011;7560;51.364;12.384;2023-11-21T17:03:46;7.18;;;4.90;;
14933;SDS011;7560;51.364;12.384;2023-11-21T17:08:50;10.00;;;5.45;;
14933;SDS011;7560;51.364;12.384;2023-11-21T17:13:52;9.32;;;5.53;;
14933;SDS011;7560;51.364;12.384;2023-11-21T17:18:54;11.52;;;6.47;;
14933;SDS011;7560;51.364;12.384;2023-11-21T17:23:56;13.50;;;7.22;;
14933;SDS011;7560;51.364;12.384;2023-11-21T17:28:58;16.45;;;8.20;;
14933;SDS011;7560;51.364;12.384;2023-11-21T17:34:02;10.63;;;6.80;;
14933;SDS011;7560;51.364;12.384;2023-11-21T17:39:04;18.25;;;9.60;;
14933;SDS011;7560;51.364;12.384;2023-11-21T17:44:11;12.65;;;7.65;;
14933;SDS011;7560;51.364;12.384;2023-11-21T17:49:13;13.50;;;8.18;;
14933;SDS011;7560;51.364;12.384;2023-11-21T17:54:15;11.18;;;7.05;;
14933;SDS011;7560;51.364;12.384;2023-11-21T17:59:17;12.27;;;7.50;;
14933;SDS011;7560;51.364;12.384;2023-11-21T18:04:19;25.20;;;11.18;;
14933;SDS011;7560;51.364;12.384;2023-11-21T18:09:24;10.90;;;6.75;;
14933;SDS011;7560;51.364;12.384;2023-11-21T18:14:26;13.50;;;7.53;;
14933;SDS011;7560;51.364;12.384;2023-11-21T18:19:30;12.93;;;7.38;;
14933;SDS011;7560;51.364;12.384;2023-11-21T18:24:32;13.48;;;8.02;;
14933;SDS011;7560;51.364;12.384;2023-11-21T18:29:34;12.85;;;7.22;;
14933;SDS011;7560;51.364;12.384;2023-11-21T18:34:36;12.02;;;7.32;;
14933;SDS011;7560;51.364;12.384;2023-11-21T18:39:43;9.88;;;5.97;;
14933;SDS011;7560;51.364;12.384;2023-11-21T18:44:45;13.75;;;7.32;;
14933;SDS011;7560;51.364;12.384;2023-11-21T18:49:59;28.75;;;12.07;;
14933;SDS011;7560;51.364;12.384;2023-11-21T18:55:01;10.90;;;6.65;;
14933;SDS011;7560;51.364;12.384;2023-11-21T19:00:04;9.75;;;5.97;;
14933;SDS011;7560;51.364;12.384;2023-11-21T19:05:10;11.80;;;6.75;;
14933;SDS011;7560;51.364;12.384;2023-11-21T19:10:12;13.15;;;6.95;;
14933;SDS011;7560;51.364;12.384;2023-11-21T19:15:14;12.27;;;7.20;;
14933;SDS011;7560;51.364;12.384;2023-11-21T19:20:17;14.95;;;7.15;;
14933;SDS011;7560;51.364;12.384;2023-11-21T19:25:19;15.98;;;7.80;;
14933;SDS011;7560;51.364;12.384;2023-11-21T19:30:22;19.70;;;10.68;;
14933;SDS011;7560;51.364;12.384;2023-11-21T19:35:24;20.23;;;10.02;;
14933;SDS011;7560;51.364;12.384;2023-11-21T19:40:26;24.63;;;11.45;;
14933;SDS011;7560;51.364;12.384;2023-11-21T19:45:28;29.98;;;12.10;;
14933;SDS011;7560;51.364;12.384;2023-11-21T19:50:32;26.50;;;11.93;;
14933;SDS011;7560;51.364;12.384;2023-11-21T19:55:34;25.77;;;12.48;;
14933;SDS011;7560;51.364;12.384;2023-11-21T20:00:36;26.35;;;13.05;;
14933;SDS011;7560;51.364;12.384;2023-11-21T20:05:37;24.75;;;12.75;;
14933;SDS011;7560;51.364;12.384;2023-11-21T20:10:40;27.40;;;13.30;;
14933;SDS011;7560;51.364;12.384;2023-11-21T20:15:42;26.85;;;12.00;;
14933;SDS011;7560;51.364;12.384;2023-11-21T20:20:44;23.88;;;12.55;;
14933;SDS011;7560;51.364;12.384;2023-11-21T20:25:46;24.33;;;12.00;;
14933;SDS011;7560;51.364;12.384;2023-11-21T20:30:48;24.73;;;12.80;;
14933;SDS011;7560;51.364;12.384;2023-11-21T20:35:51;21.83;;;12.27;;
14933;SDS011;7560;51.364;12.384;2023-11-21T20:40:52;25.20;;;12.73;;
14933;SDS011;7560;51.364;12.384;2023-11-21T20:45:54;24.90;;;12.50;;
14933;SDS011;7560;51.364;12.384;2023-11-21T20:50:56;23.38;;;12.00;;
14933;SDS011;7560;51.364;12.384;2023-11-21T20:55:58;18.45;;;11.02;;
14933;SDS011;7560;51.364;12.384;2023-11-21T21:01:02;19.13;;;10.90;;
14933;SDS011;7560;51.364;12.384;2023-11-21T21:06:04;20.02;;;11.80;;
14933;SDS011;7560;51.364;12.384;2023-11-21T21:11:08;21.48;;;12.25;;
14933;SDS011;7560;51.364;12.384;2023-11-21T21:16:11;18.65;;;10.63;;
14933;SDS011;7560;51.364;12.384;2023-11-21T21:21:12;17.83;;;10.60;;
14933;SDS011;7560;51.364;12.384;2023-11-21T21:26:14;21.33;;;13.07;;
14933;SDS011;7560;51.364;12.384;2023-11-21T21:31:16;18.67;;;10.68;;
14933;SDS011;7560;51.364;12.384;2023-11-21T21:36:18;16.48;;;9.98;;
14933;SDS011;7560;51.364;12.384;2023-11-21T21:41:21;15.27;;;9.20;;
14933;SDS011;7560;51.364;12.384;2023-11-21T21:46:23;16.55;;;9.25;;
14933;SDS011;7560;51.364;12.384;2023-11-21T21:51:24;14.30;;;8.48;;
14933;SDS011;7560;51.364;12.384;2023-11-21T21:56:26;14.07;;;8.27;;
14933;SDS011;7560;51.364;12.384;2023-11-21T22:01:28;19.67;;;9.05;;
14933;SDS011;7560;51.364;12.384;2023-11-21T22:06:32;15.07;;;8.73;;
14933;SDS011;7560;51.364;12.384;2023-11-21T22:11:34;16.27;;;8.85;;
14933;SDS011;7560;51.364;12.384;2023-11-21T22:16:36;18.42;;;8.93;;
14933;SDS011;7560;51.364;12.384;2023-11-21T22:21:37;14.55;;;8.10;;
14933;SDS011;7560;51.364;12.384;2023-11-21T22:26:39;16.00;;;8.90;;
14933;SDS011;7560;51.364;12.384;2023-11-21T22:31:41;16.30;;;8.88;;
14933;SDS011;7560;51.364;12.384;2023-11-21T22:36:43;18.67;;;8.40;;
14933;SDS011;7560;51.364;12.384;2023-11-21T22:41:45;17.98;;;9.02;;
14933;SDS011;7560;51.364;12.384;2023-11-21T22:46:47;15.75;;;8.55;;
14933;SDS011;7560;51.364;12.384;2023-11-21T22:51:49;15.98;;;8.50;;
14933;SDS011;7560;51.364;12.384;2023-11-21T22:56:50;14.80;;;7.82;;
14933;SDS011;7560;51.364;12.384;2023-11-21T23:01:52;18.70;;;7.78;;
14933;SDS011;7560;51.364;12.384;2023-11-21T23:06:55;15.25;;;7.45;;
14933;SDS011;7560;51.364;12.384;2023-11-21T23:11:56;12.45;;;7.50;;
14933;SDS011;7560;51.364;12.384;2023-11-21T23:16:58;13.30;;;6.55;;
14933;SDS011;7560;51.364;12.384;2023-11-21T23:22:00;12.70;;;7.18;;
14933;SDS011;7560;51.364;12.384;2023-11-21T23:27:02;13.32;;;6.72;;
14933;SDS011;7560;51.364;12.384;2023-11-21T23:32:06;10.95;;;6.38;;
14933;SDS011;7560;51.364;12.384;2023-11-21T23:37:08;10.27;;;5.75;;
14933;SDS011;7560;51.364;12.384;2023-11-21T23:42:09;10.27;;;5.88;;
14933;SDS011;7560;51.364;12.384;2023-11-21T23:47:11;10.13;;;5.57;;
14933;SDS011;7560;51.364;12.384;2023-11-21T23:52:13;9.77;;;5.82;;
14933;SDS011;7560;51.364;12.384;2023-11-21T23:57:17;8.95;;;5.50;;
